Time;durP1;ratioP1;P1;durP2;ratioP2;P2;SDS_P1;SDS_P2;PMS_P1;PMS_P2;Temp;Humidity;BMP_temperature;BMP_pressure;BME280_temperature;BME280_humidity;BME280_pressure;Samples;Min_cycle;Max_cycle;Signal;HPM_P1;HPM_P2
2022/09/24 08:02:01;;;;;;;23.48;20.98;;;;;;;13.55;100.00;101011.50;5279286;28;20394;-75
2022/09/24 08:04:33;;;;;;;26.52;21.30;;;;;;;13.57;100.00;101013.97;5263729;28;20468;-75
2022/09/24 08:07:04;;;;;;;21.98;19.88;;;;;;;13.59;100.00;101018.09;5266653;28;20083;-74
2022/09/24 08:09:35;;;;;;;25.40;23.00;;;;;;;13.57;100.00;101019.53;5280074;28;20040;-77
2022/09/24 08:12:08;;;;;;;20.23;18.23;;;;;;;13.71;100.00;101020.41;5279885;28;20021;-77
2022/09/24 08:14:42;;;;;;;20.75;18.63;;;;;;;13.67;100.00;101019.34;5269352;28;20055;-75
2022/09/24 08:17:13;;;;;;;19.80;17.90;;;;;;;13.69;100.00;101022.66;5270693;28;20116;-74
2022/09/24 08:19:45;;;;;;;56.95;51.25;;;;;;;13.70;100.00;101025.16;5272104;28;20155;-73
2022/09/24 08:22:17;;;;;;;20.13;18.23;;;;;;;13.84;100.00;101032.72;5261589;28;20095;-74
2022/09/24 08:24:49;;;;;;;18.17;16.27;;;;;;;13.94;100.00;101037.28;5269328;28;20163;-74
2022/09/24 08:27:20;;;;;;;20.55;18.55;;;;;;;13.79;100.00;101039.19;5270550;28;20025;-74
2022/09/24 08:29:52;;;;;;;20.90;18.75;;;;;;;13.78;100.00;101034.78;5258792;28;20158;-74
2022/09/24 08:32:23;;;;;;;19.95;17.83;;;;;;;13.86;100.00;101033.22;5270560;28;20510;-75
2022/09/24 08:34:58;;;;;;;20.80;18.10;;;;;;;13.88;100.00;101037.38;5274786;28;20029;-72
2022/09/24 08:37:30;;;;;;;20.37;18.37;;;;;;;13.89;100.00;101039.00;5278988;28;20025;-74
2022/09/24 08:40:02;;;;;;;20.00;18.10;;;;;;;13.92;100.00;101043.16;5276250;28;20310;-74
2022/09/24 08:42:49;;;;;;;18.02;16.13;;;;;;;14.06;100.00;101040.38;5270947;28;20025;-73
2022/09/24 08:48:19;;;;;;;19.40;17.50;;;;;;;14.03;100.00;101038.19;5271316;28;20037;-74
2022/09/24 08:50:59;;;;;;;19.52;17.67;;;;;;;14.03;100.00;101043.78;5260865;28;20029;-74
2022/09/24 08:53:47;;;;;;;19.30;17.40;;;;;;;14.04;100.00;101051.84;5266842;28;20488;-74
2022/09/24 08:56:25;;;;;;;19.85;17.95;;;;;;;14.00;100.00;101050.78;5257584;28;20064;-76
2022/09/24 08:59:00;;;;;;;20.42;18.25;;;;;;;14.06;100.00;101057.94;5269662;28;20038;-74
2022/09/24 09:01:47;;;;;;;21.42;19.15;;;;;;;14.04;100.00;101062.19;5278734;28;20055;-79
2022/09/24 09:04:59;;;;;;;19.65;17.58;;;;;;;14.06;100.00;101062.66;5276212;28;20024;-74
2022/09/24 09:07:44;;;;;;;20.50;18.42;;;;;;;14.09;100.00;101062.91;5268668;28;20037;-75
2022/09/24 09:10:26;;;;;;;17.42;15.63;;;;;;;14.19;100.00;101056.31;5265706;28;20025;-76
2022/09/24 09:13:08;;;;;;;14.90;13.45;;;;;;;14.29;100.00;101061.69;5246537;28;20159;-74
2022/09/24 09:15:45;;;;;;;17.80;15.98;;;;;;;14.33;100.00;101059.91;5244538;28;20034;-74
2022/09/24 09:18:19;;;;;;;15.10;13.60;;;;;;;14.48;100.00;101063.53;5243354;28;20033;-74
2022/09/24 09:20:51;;;;;;;19.65;17.65;;;;;;;14.32;100.00;101065.81;5254329;28;20060;-77
2022/09/24 09:23:33;;;;;;;21.17;19.17;;;;;;;14.33;100.00;101071.06;5261690;28;20036;-74
2022/09/24 09:26:10;;;;;;;19.75;17.70;;;;;;;14.35;100.00;101073.56;5248785;28;20021;-75
2022/09/24 09:28:41;;;;;;;19.05;17.05;;;;;;;14.48;100.00;101069.13;5258917;28;20380;-76
2022/09/24 09:31:54;;;;;;;22.23;20.00;;;;;;;14.39;100.00;101062.59;5244206;28;20022;-74
2022/09/24 09:34:31;;;;;;;19.10;17.35;;;;;;;14.35;100.00;101073.56;5261383;28;20029;-76
2022/09/24 09:37:11;;;;;;;31.10;28.02;;;;;;;14.38;100.00;101069.31;5246421;28;20034;-77
2022/09/24 09:40:21;;;;;;;41.30;37.03;;;;;;;14.53;100.00;101066.25;5260474;28;20028;-74
2022/09/24 09:43:01;;;;;;;19.02;16.98;;;;;;;14.46;100.00;101065.81;5254464;28;20107;-77
2022/09/24 09:45:58;;;;;;;18.30;16.50;;;;;;;14.65;100.00;101063.75;5263260;28;20384;-76
2022/09/24 09:48:36;;;;;;;;;;;;;;;14.59;99.90;101059.41;5262823;28;20471;-74
2022/09/24 09:51:15;;;;;;;18.92;16.83;;;;;;;14.39;100.00;101063.41;5249851;28;20356;-73
2022/09/24 09:53:58;;;;;;;18.35;16.42;;;;;;;14.52;100.00;101062.59;5260488;28;20032;-73
2022/09/24 09:56:34;;;;;;;19.52;17.58;;;;;;;14.42;100.00;101057.25;5247419;28;20483;-72
2022/09/24 09:59:17;;;;;;;19.30;17.42;;;;;;;14.53;100.00;101060.66;5251397;28;20094;-74
2022/09/24 10:01:55;;;;;;;19.88;18.17;;;;;;;14.55;100.00;101066.78;5249030;28;20362;-74
2022/09/24 10:04:40;;;;;;;19.40;17.45;;;;;;;14.52;100.00;101064.53;5252676;28;20056;-77
2022/09/24 10:07:16;;;;;;;16.75;15.13;;;;;;;14.67;100.00;101060.63;5248968;28;20025;-77
2022/09/24 10:10:02;;;;;;;18.02;16.20;;;;;;;14.53;100.00;101064.28;5260747;28;20041;-74
2022/09/24 10:12:34;;;;;;;19.58;17.70;;;;;;;14.51;100.00;101069.31;5262631;28;20478;-78
2022/09/24 10:15:15;;;;;;;17.83;16.13;;;;;;;14.47;100.00;101064.66;5263631;28;20223;-77
2022/09/24 10:17:49;;;;;;;20.42;18.15;;;;;;;14.66;100.00;101061.78;5260406;28;20018;-77
2022/09/24 10:20:27;;;;;;;34.35;30.85;;;;;;;14.62;100.00;101066.34;5252365;28;20178;-78
2022/09/24 10:23:03;;;;;;;19.30;17.40;;;;;;;14.56;100.00;101055.28;5257554;28;20384;-77
2022/09/24 10:25:35;;;;;;;17.55;15.85;;;;;;;14.79;100.00;101056.19;5258897;28;20028;-78
2022/09/24 10:31:21;;;;;;;19.17;17.27;;;;;;;14.71;100.00;101058.88;5263563;28;20021;-79
2022/09/24 10:33:55;;;;;;;18.67;16.77;;;;;;;14.66;100.00;101051.44;5247691;28;20025;-75
2022/09/24 10:36:29;;;;;;;16.27;14.75;;;;;;;14.87;99.93;101056.59;5262348;28;20055;-76
2022/09/24 10:39:13;;;;;;;16.27;13.77;;;;;;;14.94;99.02;101054.19;5262612;28;20104;-76
2022/09/24 10:41:52;;;;;;;17.88;16.17;;;;;;;14.83;99.68;101061.13;5261600;28;20075;-77
2022/09/24 10:44:36;;;;;;;19.65;17.65;;;;;;;14.75;99.86;101055.16;5263078;28;20029;-78
2022/09/24 10:47:24;;;;;;;18.77;16.88;;;;;;;14.85;99.69;101058.84;5249358;28;20427;-78
2022/09/24 10:50:07;;;;;;;17.48;15.80;;;;;;;14.91;99.24;101063.19;5257273;28;20028;-77
2022/09/24 10:52:57;;;;;;;18.08;16.27;;;;;;;14.81;99.03;101071.81;5261943;28;20032;-78
2022/09/24 10:56:10;;;;;;;18.70;16.90;;;;;;;14.86;99.14;101068.91;5259614;28;20031;-78
2022/09/24 10:59:06;;;;;;;19.27;17.10;;;;;;;14.83;99.52;101072.28;5247009;28;20060;-79
2022/09/24 11:02:02;;;;;;;17.70;15.98;;;;;;;14.91;98.82;101072.41;5253134;28;20084;-76
2022/09/24 11:04:44;;;;;;;20.05;17.77;;;;;;;15.00;100.00;101081.66;5242536;28;20037;-77
2022/09/24 11:07:27;;;;;;;18.63;16.67;;;;;;;15.03;100.00;101083.00;5242682;28;20116;-78
2022/09/24 11:10:17;;;;;;;16.63;14.93;;;;;;;15.18;98.13;101079.88;5255602;28;20040;-77
2022/09/24 11:13:18;;;;;;;32.10;28.83;;;;;;;15.26;96.64;101074.69;5241621;28;20037;-81
2022/09/24 11:16:13;;;;;;;16.48;14.90;;;;;;;15.30;96.00;101078.50;5245804;28;20041;-80
2022/09/24 11:19:09;;;;;;;19.70;16.50;;;;;;;15.14;96.19;101078.84;5251022;28;20029;-78
2022/09/24 11:22:18;;;;;;;18.25;15.32;;;;;;;15.27;95.74;101082.75;5247947;28;20072;-78
2022/09/24 11:25:12;;;;;;;15.32;13.80;;;;;;;15.28;94.63;101075.19;5237951;28;20045;-77
2022/09/24 11:28:07;;;;;;;18.15;16.38;;;;;;;15.20;95.52;101073.97;5245202;28;20039;-78
2022/09/24 11:31:25;;;;;;;15.68;14.20;;;;;;;15.31;94.73;101077.34;5243209;28;20088;-77
2022/09/24 11:34:15;;;;;;;18.75;16.75;;;;;;;15.37;95.33;101079.72;5256366;28;20045;-77
2022/09/24 11:36:54;;;;;;;14.43;13.00;;;;;;;15.40;94.23;101078.25;5258189;28;20040;-77
2022/09/24 11:39:26;;;;;;;15.23;13.65;;;;;;;15.23;93.60;101079.75;5249363;28;20043;-79
2022/09/24 11:42:03;;;;;;;16.95;15.25;;;;;;;15.25;94.12;101078.63;5240855;28;20140;-79
2022/09/24 11:44:53;;;;;;;13.30;11.95;;;;;;;15.16;92.01;101076.59;5255841;28;20490;-78
2022/09/24 11:47:54;;;;;;;13.48;12.02;;;;;;;15.14;92.79;101078.84;5261575;28;20029;-76
2022/09/24 11:50:52;;;;;;;13.48;11.60;;;;;;;15.28;92.84;101077.97;5240946;28;20049;-75
2022/09/24 11:53:39;;;;;;;13.82;11.68;;;;;;;15.23;92.82;101071.38;5250109;28;20031;-74
2022/09/24 11:56:21;;;;;;;13.20;11.80;;;;;;;15.22;92.23;101077.28;5261645;28;20029;-75
2022/09/24 11:58:57;;;;;;;12.35;11.15;;;;;;;15.33;91.79;101075.06;5261149;28;20460;-76
2022/09/24 12:01:35;;;;;;;13.07;11.50;;;;;;;15.28;90.57;101075.19;5250472;28;20045;-77
2022/09/24 12:04:23;;;;;;;12.27;11.00;;;;;;;15.27;91.68;101081.94;5256722;28;20028;-78
2022/09/24 12:07:14;;;;;;;10.30;9.30;;;;;;;15.31;92.02;101080.13;5254884;28;20064;-77
2022/09/24 12:09:57;;;;;;;10.30;9.35;;;;;;;15.40;90.54;101083.84;5260097;28;20108;-79
2022/09/24 12:12:45;;;;;;;10.63;9.63;;;;;;;15.26;91.37;101077.47;5252337;28;20476;-75
2022/09/24 12:15:22;;;;;;;12.73;10.75;;;;;;;15.21;91.04;101079.25;5260376;28;20032;-74
2022/09/24 12:18:06;;;;;;;12.85;11.23;;;;;;;15.47;91.71;101075.84;5261740;28;20461;-76
2022/09/24 12:20:47;;;;;;;10.70;9.70;;;;;;;15.30;91.48;101082.13;5255971;28;20079;-75
2022/09/24 12:23:26;;;;;;;10.18;9.13;;;;;;;15.30;91.61;101073.72;5241436;28;20396;-75
2022/09/24 12:26:01;;;;;;;10.43;9.27;;;;;;;15.41;91.30;101072.31;5249496;28;20032;-76
2022/09/24 12:35:07;;;;;;;14.07;10.68;;;;;;;15.41;90.95;101079.91;5240435;28;20025;-75
2022/09/24 12:37:42;;;;;;;9.65;8.68;;;;;;;15.34;90.29;101083.16;5244582;28;20021;-78
2022/09/24 12:40:25;;;;;;;9.40;8.43;;;;;;;15.40;90.32;101075.47;5241237;28;20476;-77
2022/09/24 12:43:00;;;;;;;8.68;7.75;;;;;;;15.32;90.06;101079.00;5243722;28;20029;-79
2022/09/24 12:45:33;;;;;;;7.80;7.07;;;;;;;15.60;90.29;101077.75;5259805;28;20021;-78
2022/09/24 12:48:04;;;;;;;10.75;7.82;;;;;;;15.65;90.66;101074.81;5263378;28;20028;-77
2022/09/24 12:50:37;;;;;;;8.95;8.00;;;;;;;15.55;89.72;101069.50;5265204;28;20028;-77
2022/09/24 12:53:26;;;;;;;8.15;7.35;;;;;;;15.55;88.89;101068.66;5260687;28;20025;-76
2022/09/24 12:56:00;;;;;;;8.82;7.70;;;;;;;15.48;88.22;101074.69;5254227;28;20051;-77
2022/09/24 12:58:41;;;;;;;10.18;8.75;;;;;;;15.50;88.48;101075.22;5265476;28;20445;-76
2022/09/24 13:01:26;;;;;;;11.18;9.88;;;;;;;15.76;88.33;101069.00;5261275;28;20057;-75
2022/09/24 13:04:21;;;;;;;7.00;5.95;;;;;;;15.66;85.18;101065.28;5243696;28;20079;-75
2022/09/24 13:06:52;;;;;;;6.95;5.68;;;;;;;15.59;84.33;101070.50;5252164;28;20068;-76
2022/09/24 13:09:34;;;;;;;34.60;31.20;;;;;;;15.53;83.03;101073.75;5251018;28;20048;-78
2022/09/24 13:12:13;;;;;;;8.63;6.00;;;;;;;15.53;83.41;101074.56;5264931;28;20098;-78
2022/09/24 13:15:05;;;;;;;6.85;6.15;;;;;;;15.49;82.59;101076.34;5250883;28;20037;-75
2022/09/24 13:17:37;;;;;;;5.78;5.00;;;;;;;15.49;83.91;101075.50;5264067;28;20079;-77
2022/09/24 13:20:24;;;;;;;6.55;5.90;;;;;;;15.53;83.72;101068.97;5263788;28;20480;-78
2022/09/24 13:23:24;;;;;;;6.15;5.55;;;;;;;15.47;83.16;101073.06;5264617;28;20376;-75
2022/09/24 13:26:04;;;;;;;6.35;5.50;;;;;;;15.41;82.56;101077.09;5264097;28;20047;-74
2022/09/24 13:28:56;;;;;;;6.38;5.07;;;;;;;15.43;82.96;101074.81;5264079;28;20024;-73
2022/09/24 13:31:27;;;;;;;8.15;6.82;;;;;;;15.55;83.16;101074.25;5243673;28;20380;-74
2022/09/24 13:34:13;;;;;;;6.35;5.75;;;;;;;15.55;83.89;101077.06;5243685;28;20021;-72
2022/09/24 13:36:51;;;;;;;6.60;5.90;;;;;;;15.68;83.41;101081.75;5262210;28;20033;-76
2022/09/24 13:39:29;;;;;;;6.45;5.82;;;;;;;15.52;82.87;101081.31;5263729;28;20021;-78
2022/09/24 13:42:06;;;;;;;8.18;6.80;;;;;;;15.47;83.57;101083.38;5264328;28;20041;-76
2022/09/24 13:44:46;;;;;;;8.13;7.28;;;;;;;15.46;82.93;101076.97;5252411;28;20142;-75
2022/09/24 13:47:29;;;;;;;6.30;5.70;;;;;;;15.35;83.33;101086.75;5249876;28;20040;-75
2022/09/24 13:50:26;;;;;;;8.88;6.97;;;;;;;15.48;83.76;101093.44;5266661;28;20029;-78
2022/09/24 13:52:59;;;;;;;7.25;5.93;;;;;;;15.44;83.96;101091.28;5260116;28;20102;-79
2022/09/24 13:55:38;;;;;;;8.20;6.38;;;;;;;15.48;84.23;101097.06;5264154;28;20036;-78
2022/09/24 13:58:28;;;;;;;7.68;6.22;;;;;;;15.53;84.77;101090.53;5249109;28;20423;-77
2022/09/24 14:01:03;;;;;;;9.18;6.70;;;;;;;15.47;83.65;101091.78;5247164;28;20045;-76
2022/09/24 14:03:36;;;;;;;6.72;6.00;;;;;;;15.52;83.17;101094.44;5263100;28;20538;-78
2022/09/24 14:06:14;;;;;;;8.93;6.43;;;;;;;15.42;84.08;101107.53;5252261;28;20032;-75
2022/09/24 14:08:45;;;;;;;6.72;6.13;;;;;;;15.50;84.49;101103.16;5252502;28;20029;-76
2022/09/24 14:11:19;;;;;;;8.75;7.05;;;;;;;15.47;84.58;101091.78;5263074;28;20025;-78
2022/09/24 14:13:53;;;;;;;7.50;6.60;;;;;;;15.61;85.07;101098.13;5244985;28;20049;-81
2022/09/24 14:16:25;;;;;;;7.93;6.90;;;;;;;15.66;85.11;101098.84;5263548;28;20110;-83
2022/09/24 14:19:04;;;;;;;7.72;6.95;;;;;;;15.72;84.31;101093.13;5257829;28;20473;-75
2022/09/24 14:21:57;;;;;;;7.15;6.43;;;;;;;15.75;84.58;101095.31;5243602;28;20053;-81
2022/09/24 14:24:38;;;;;;;18.73;16.77;;;;;;;15.81;83.88;101094.84;5242588;28;20033;-78
2022/09/24 14:27:16;;;;;;;10.88;8.10;;;;;;;15.72;83.76;101088.41;5242182;28;20052;-77
2022/09/24 14:30:06;;;;;;;9.75;8.60;;;;;;;15.86;84.12;101088.31;5259181;28;20033;-78
2022/09/24 14:32:41;;;;;;;12.52;7.90;;;;;;;15.95;82.56;101092.00;5264120;28;20508;-77
2022/09/24 14:35:28;;;;;;;10.57;8.13;;;;;;;15.92;83.01;101091.78;5254262;28;20047;-75
2022/09/24 14:38:13;;;;;;;9.43;8.02;;;;;;;15.85;81.68;101097.84;5257859;28;20079;-78
2022/09/24 14:40:49;;;;;;;8.30;7.53;;;;;;;15.88;81.61;101094.41;5262521;28;20063;-77
2022/09/24 14:43:33;;;;;;;8.13;7.40;;;;;;;15.96;81.85;101093.63;5258749;28;20028;-77
2022/09/24 14:46:12;;;;;;;8.82;7.95;;;;;;;15.97;81.28;101088.88;5241838;28;20045;-78
2022/09/24 14:48:43;;;;;;;10.93;8.02;;;;;;;15.79;80.59;101083.16;5249657;28;20039;-77
2022/09/24 14:51:27;;;;;;;8.32;7.32;;;;;;;16.00;81.96;101088.22;5263199;28;20029;-78
2022/09/24 14:54:27;;;;;;;8.93;7.47;;;;;;;15.90;82.68;101092.13;5249052;28;20078;-78
2022/09/24 14:57:17;;;;;;;8.57;7.60;;;;;;;15.91;83.99;101092.94;5258150;28;20509;-79
2022/09/24 14:59:49;;;;;;;11.88;10.68;;;;;;;15.76;85.04;101094.16;5248685;28;20045;-76
2022/09/24 15:02:20;;;;;;;8.95;8.15;;;;;;;15.90;85.37;101097.72;5241129;28;20022;-74
2022/09/24 15:04:56;;;;;;;20.52;16.73;;;;;;;15.85;86.18;101089.47;5241350;28;20027;-77
2022/09/24 15:07:32;;;;;;;16.13;14.10;;;;;;;15.69;85.14;101091.81;5253206;28;20380;-74
2022/09/24 15:10:04;;;;;;;10.25;9.25;;;;;;;15.64;85.03;101087.13;5241058;28;20435;-73
2022/09/24 15:12:39;;;;;;;9.50;8.60;;;;;;;15.59;85.14;101084.47;5245021;28;20033;-76
2022/09/24 15:15:15;;;;;;;10.02;9.05;;;;;;;15.60;85.91;101091.72;5262080;28;20047;-76
2022/09/24 15:17:46;;;;;;;10.18;9.13;;;;;;;15.50;86.50;101102.34;5250636;28;20391;-75
2022/09/24 15:20:18;;;;;;;9.07;8.18;;;;;;;15.47;85.97;101092.63;5262232;28;20024;-76
2022/09/24 15:22:49;;;;;;;8.82;7.93;;;;;;;15.51;86.56;101090.81;5261411;28;20028;-76
2022/09/24 15:25:21;;;;;;;8.95;8.02;;;;;;;15.41;85.61;101099.47;5262183;28;20025;-76
2022/09/24 15:27:53;;;;;;;9.30;8.13;;;;;;;15.38;86.03;101102.88;5259214;28;20496;-75
2022/09/24 15:30:25;;;;;;;14.85;13.38;;;;;;;15.40;86.10;101093.03;5256129;28;20155;-74
2022/09/24 15:32:56;;;;;;;8.52;7.70;;;;;;;15.37;85.23;101101.25;5247406;28;20448;-75
2022/09/24 15:35:27;;;;;;;7.88;7.07;;;;;;;15.27;85.18;101105.09;5241852;28;20049;-74
2022/09/24 15:37:59;;;;;;;8.50;7.70;;;;;;;15.23;85.42;101106.88;5259590;28;20013;-76
2022/09/24 15:40:33;;;;;;;9.68;8.68;;;;;;;15.19;86.27;101101.09;5262152;28;20029;-73
2022/09/24 15:43:16;;;;;;;9.07;7.90;;;;;;;15.22;86.34;101110.81;5261742;28;20111;-73
2022/09/24 15:45:47;;;;;;;9.40;8.27;;;;;;;15.17;86.77;101110.94;5252253;28;20116;-73
2022/09/24 15:48:19;;;;;;;10.52;8.00;;;;;;;15.24;87.09;101105.75;5258996;28;20452;-73
2022/09/24 15:50:50;;;;;;;9.20;8.32;;;;;;;15.18;87.60;101112.56;5241259;28;20496;-75
2022/09/24 15:53:25;;;;;;;11.82;10.07;;;;;;;15.22;88.32;101120.00;5244906;28;20026;-74
2022/09/24 15:56:02;;;;;;;12.75;11.45;;;;;;;15.10;89.31;101119.72;5240891;28;20032;-76
2022/09/24 15:58:33;;;;;;;11.73;10.50;;;;;;;15.04;90.66;101123.78;5252987;28;20545;-74
2022/09/24 16:01:05;;;;;;;11.10;9.73;;;;;;;15.14;90.72;101128.31;5240884;28;20046;-74
2022/09/24 16:03:36;;;;;;;11.15;10.15;;;;;;;15.03;92.22;101133.28;5241751;28;20223;-75
2022/09/24 16:06:10;;;;;;;12.38;10.15;;;;;;;15.02;92.43;101125.25;5244375;28;20104;-74
2022/09/24 16:08:41;;;;;;;11.85;10.63;;;;;;;14.94;93.08;101135.19;5267542;28;20017;-74
2022/09/24 16:11:13;;;;;;;11.38;10.25;;;;;;;14.97;93.21;101131.75;5254175;28;20033;-73
2022/09/24 16:13:44;;;;;;;12.32;11.20;;;;;;;14.98;93.37;101136.19;5240146;28;20071;-74
2022/09/24 16:16:15;;;;;;;12.73;11.25;;;;;;;14.97;93.48;101138.16;5259079;28;20043;-74
2022/09/24 16:18:47;;;;;;;12.57;11.38;;;;;;;15.05;93.99;101141.38;5248759;28;20044;-73
2022/09/24 16:21:19;;;;;;;12.77;11.57;;;;;;;14.98;94.56;101137.03;5245890;28;20029;-73
2022/09/24 16:23:55;;;;;;;12.35;11.15;;;;;;;15.01;94.86;101141.16;5247863;28;20115;-72
2022/09/24 16:26:26;;;;;;;12.45;11.27;;;;;;;14.99;95.16;101143.44;5264263;28;20032;-72
2022/09/24 16:28:57;;;;;;;12.23;10.52;;;;;;;14.97;94.61;101140.13;5258353;28;20033;-72
2022/09/24 16:31:29;;;;;;;10.13;9.15;;;;;;;14.86;94.07;101144.28;5245015;28;20438;-73
2022/09/24 16:34:01;;;;;;;10.93;9.93;;;;;;;14.85;94.46;101145.41;5244398;28;20059;-73
2022/09/24 16:36:32;;;;;;;11.48;10.18;;;;;;;14.72;95.36;101145.09;5245224;28;20018;-73
2022/09/24 16:39:04;;;;;;;10.85;9.85;;;;;;;14.73;95.02;101152.34;5265511;28;20032;-73
2022/09/24 16:41:36;;;;;;;11.32;9.48;;;;;;;14.72;96.08;101156.28;5265391;28;20033;-72
2022/09/24 16:44:13;;;;;;;10.68;9.57;;;;;;;14.59;96.52;101168.25;5261566;28;20105;-73
2022/09/24 16:46:45;;;;;;;13.60;11.95;;;;;;;14.62;97.13;101164.84;5245127;28;20036;-72
2022/09/24 16:49:17;;;;;;;10.55;9.55;;;;;;;14.72;96.56;101172.19;5243965;28;20120;-73
2022/09/24 16:51:48;;;;;;;10.75;9.68;;;;;;;14.73;97.06;101171.91;5244990;28;20056;-73
2022/09/24 16:54:21;;;;;;;9.77;8.77;;;;;;;14.64;96.18;101175.72;5244475;28;20064;-73
2022/09/24 16:56:52;;;;;;;10.38;9.15;;;;;;;14.51;97.39;101169.78;5244643;28;20026;-72
2022/09/24 16:59:24;;;;;;;11.98;10.88;;;;;;;14.55;97.44;101172.81;5247983;28;20465;-74
2022/09/24 17:01:55;;;;;;;10.13;9.05;;;;;;;14.45;97.77;101171.03;5260497;28;20037;-72
2022/09/24 17:04:27;;;;;;;18.95;17.15;;;;;;;14.25;97.37;101172.22;5264865;28;20109;-75
2022/09/24 17:06:58;;;;;;;10.70;9.80;;;;;;;14.46;98.55;101169.88;5265399;28;20028;-75
2022/09/24 17:12:19;;;;;;;10.40;9.43;;;;;;;14.27;97.95;101172.75;5248342;28;20033;-73
2022/09/24 17:14:51;;;;;;;10.27;8.98;;;;;;;14.25;98.95;101188.94;5250664;28;20017;-72
2022/09/24 17:17:23;;;;;;;10.27;9.25;;;;;;;14.27;99.44;101180.28;5256396;28;20060;-72
2022/09/24 17:19:54;;;;;;;9.27;8.38;;;;;;;14.23;98.48;101182.84;5256551;28;20021;-72
2022/09/24 17:22:25;;;;;;;8.38;6.97;;;;;;;14.21;97.99;101185.09;5243604;28;20018;-73
2022/09/24 17:24:57;;;;;;;7.90;6.13;;;;;;;14.16;97.87;101184.38;5244580;28;20029;-72
2022/09/24 17:27:28;;;;;;;7.18;6.57;;;;;;;14.12;98.02;101184.16;5253720;28;20028;-73
2022/09/24 17:30:04;;;;;;;8.15;6.70;;;;;;;14.12;98.78;101187.78;5244581;28;20026;-72
2022/09/24 17:32:35;;;;;;;6.35;5.75;;;;;;;14.07;98.46;101184.25;5243433;28;20030;-71
